GMFF/FEZ METAR and TAF weather

Enter ICAO airport designator
Station Type Date Time Source
GMFF METAR 2018/01/16 09:30 UTC NOAA

GMFF 160930Z 07005KT CAVOK 11/05 Q1029 NOSIG


Station Type Date Time Source
GMFF Decoded METAR 2018/01/16 09:30 UTC NOAA

Fes-Sais, Morocco (GMFF) 33-56N 004-59W 579M
Jan 16, 2018 - 04:30 AM EST / 2018.01.16 0930 UTC
Wind: from the ENE (070 degrees) at 6 MPH (5 KT):0
Visibility: greater than 7 mile(s):0
Temperature: 51 F (11 C)
Dew Point: 41 F (5 C)
Relative Humidity: 66%
Pressure (altimeter): 30.39 in. Hg (1029 hPa)
ob: GMFF 160930Z 07005KT CAVOK 11/05 Q1029 NOSIG
cycle: 9

Station Type Date Time Source
GMFF TAF 2018/01/16 06:18 UTC NOAA

TAF TAF GMFF 160500Z 1606/1712 08006KT CAVOK
BECMG 1612/1616 18011KT SCT030
BECMG 1622/1701 08012KT


Example: see airport list